sensor_id;sensor_type;location;lat;lon;timestamp;pressure;altitude;pressure_sealevel;temperature;humidity
63035;BME280;59750;53.356;-1.458;2022-07-23T00:00:04;100820.94;;;13.86;100.00
63035;BME280;59750;53.356;-1.458;2022-07-23T00:02:31;100818.56;;;13.83;100.00
63035;BME280;59750;53.356;-1.458;2022-07-23T00:04:57;100818.69;;;13.81;100.00
63035;BME280;59750;53.356;-1.458;2022-07-23T00:07:23;100811.84;;;13.79;100.00
63035;BME280;59750;53.356;-1.458;2022-07-23T00:09:49;100801.25;;;13.79;100.00
63035;BME280;59750;53.356;-1.458;2022-07-23T00:12:15;100799.84;;;13.75;100.00
63035;BME280;59750;53.356;-1.458;2022-07-23T00:14:41;100794.78;;;13.72;100.00
63035;BME280;59750;53.356;-1.458;2022-07-23T00:17:08;100793.13;;;13.71;100.00
63035;BME280;59750;53.356;-1.458;2022-07-23T00:19:34;100787.81;;;13.71;100.00
63035;BME280;59750;53.356;-1.458;2022-07-23T00:22:00;100807.28;;;13.70;100.00
63035;BME280;59750;53.356;-1.458;2022-07-23T00:24:26;100812.59;;;13.70;100.00
63035;BME280;59750;53.356;-1.458;2022-07-23T00:26:52;100801.13;;;13.69;100.00
63035;BME280;59750;53.356;-1.458;2022-07-23T00:29:19;100804.03;;;13.66;100.00
63035;BME280;59750;53.356;-1.458;2022-07-23T00:31:45;100804.41;;;13.61;100.00
63035;BME280;59750;53.356;-1.458;2022-07-23T00:34:12;100807.88;;;13.62;100.00
63035;BME280;59750;53.356;-1.458;2022-07-23T00:36:38;100800.78;;;13.63;100.00
63035;BME280;59750;53.356;-1.458;2022-07-23T00:39:04;100803.44;;;13.63;100.00
63035;BME280;59750;53.356;-1.458;2022-07-23T00:41:31;100800.78;;;13.63;100.00
63035;BME280;59750;53.356;-1.458;2022-07-23T00:44:18;100800.78;;;13.63;100.00
63035;BME280;59750;53.356;-1.458;2022-07-23T00:46:48;100793.81;;;13.61;100.00
63035;BME280;59750;53.356;-1.458;2022-07-23T00:49:14;100794.66;;;13.62;100.00
63035;BME280;59750;53.356;-1.458;2022-07-23T00:51:41;100792.97;;;13.61;100.00
63035;BME280;59750;53.356;-1.458;2022-07-23T00:54:07;100779.91;;;13.59;100.00
63035;BME280;59750;53.356;-1.458;2022-07-23T00:56:34;100786.25;;;13.57;100.00
63035;BME280;59750;53.356;-1.458;2022-07-23T00:59:00;100781.94;;;13.56;100.00
63035;BME280;59750;53.356;-1.458;2022-07-23T01:01:27;100784.84;;;13.53;100.00
63035;BME280;59750;53.356;-1.458;2022-07-23T01:03:53;100780.50;;;13.52;100.00
63035;BME280;59750;53.356;-1.458;2022-07-23T01:06:19;100772.69;;;13.50;100.00
63035;BME280;59750;53.356;-1.458;2022-07-23T01:08:45;100768.63;;;13.46;100.00
63035;BME280;59750;53.356;-1.458;2022-07-23T01:11:11;100763.59;;;13.43;100.00
63035;BME280;59750;53.356;-1.458;2022-07-23T01:13:43;100762.97;;;13.40;100.00
63035;BME280;59750;53.356;-1.458;2022-07-23T01:16:10;100764.06;;;13.37;100.00
63035;BME280;59750;53.356;-1.458;2022-07-23T01:18:35;100766.94;;;13.34;100.00
63035;BME280;59750;53.356;-1.458;2022-07-23T01:21:02;100767.91;;;13.33;100.00
63035;BME280;59750;53.356;-1.458;2022-07-23T01:23:28;100768.03;;;13.32;100.00
63035;BME280;59750;53.356;-1.458;2022-07-23T01:25:54;100763.69;;;13.30;100.00
63035;BME280;59750;53.356;-1.458;2022-07-23T01:28:20;100763.69;;;13.30;100.00
63035;BME280;59750;53.356;-1.458;2022-07-23T01:30:47;100762.03;;;13.29;100.00
63035;BME280;59750;53.356;-1.458;2022-07-23T01:33:14;100760.34;;;13.28;100.00
63035;BME280;59750;53.356;-1.458;2022-07-23T01:35:40;100756.84;;;13.28;100.00
63035;BME280;59750;53.356;-1.458;2022-07-23T01:38:06;100752.53;;;13.27;100.00
63035;BME280;59750;53.356;-1.458;2022-07-23T01:40:32;100759.50;;;13.28;100.00
63035;BME280;59750;53.356;-1.458;2022-07-23T01:42:58;100767.44;;;13.28;100.00
63035;BME280;59750;53.356;-1.458;2022-07-23T01:45:24;100761.19;;;13.29;100.00
63035;BME280;59750;53.356;-1.458;2022-07-23T01:47:50;100757.56;;;13.30;100.00
63035;BME280;59750;53.356;-1.458;2022-07-23T01:50:16;100762.97;;;13.28;100.00
63035;BME280;59750;53.356;-1.458;2022-07-23T01:52:42;100755.06;;;13.28;100.00
63035;BME280;59750;53.356;-1.458;2022-07-23T01:55:09;100757.69;;;13.28;100.00
63035;BME280;59750;53.356;-1.458;2022-07-23T01:57:34;100757.56;;;13.30;100.00
63035;BME280;59750;53.356;-1.458;2022-07-23T02:00:01;100756.75;;;13.29;100.00
63035;BME280;59750;53.356;-1.458;2022-07-23T02:02:27;100762.03;;;13.29;100.00
63035;BME280;59750;53.356;-1.458;2022-07-23T02:04:54;100760.34;;;13.28;100.00
63035;BME280;59750;53.356;-1.458;2022-07-23T02:07:20;100761.19;;;13.29;100.00
63035;BME280;59750;53.356;-1.458;2022-07-23T02:09:46;100755.91;;;13.29;100.00
63035;BME280;59750;53.356;-1.458;2022-07-23T02:12:12;100757.56;;;13.30;100.00
63035;BME280;59750;53.356;-1.458;2022-07-23T02:14:41;100757.56;;;13.30;100.00
63035;BME280;59750;53.356;-1.458;2022-07-23T02:17:07;100754.09;;;13.29;100.00
63035;BME280;59750;53.356;-1.458;2022-07-23T02:19:33;100753.13;;;13.30;100.00
63035;BME280;59750;53.356;-1.458;2022-07-23T02:21:59;100742.69;;;13.29;100.00
63035;BME280;59750;53.356;-1.458;2022-07-23T02:24:25;100744.75;;;13.25;100.00
63035;BME280;59750;53.356;-1.458;2022-07-23T02:26:51;100739.34;;;13.27;100.00
63035;BME280;59750;53.356;-1.458;2022-07-23T02:29:17;100733.31;;;13.25;100.00
63035;BME280;59750;53.356;-1.458;2022-07-23T02:31:43;100734.03;;;13.27;100.00
63035;BME280;59750;53.356;-1.458;2022-07-23T02:34:09;100739.34;;;13.27;100.00
63035;BME280;59750;53.356;-1.458;2022-07-23T02:36:38;100740.06;;;13.29;100.00
63035;BME280;59750;53.356;-1.458;2022-07-23T02:39:05;100741.72;;;13.30;100.00
63035;BME280;59750;53.356;-1.458;2022-07-23T02:41:31;100746.03;;;13.31;100.00
63035;BME280;59750;53.356;-1.458;2022-07-23T02:43:57;100739.81;;;13.32;100.00
63035;BME280;59750;53.356;-1.458;2022-07-23T02:46:23;100746.88;;;13.32;100.00
63035;BME280;59750;53.356;-1.458;2022-07-23T02:48:50;100735.47;;;13.31;100.00
63035;BME280;59750;53.356;-1.458;2022-07-23T02:51:16;100753.00;;;13.32;100.00
63035;BME280;59750;53.356;-1.458;2022-07-23T02:53:42;100746.03;;;13.31;100.00
63035;BME280;59750;53.356;-1.458;2022-07-23T02:56:08;100748.69;;;13.31;100.00
63035;BME280;59750;53.356;-1.458;2022-07-23T02:58:35;100746.16;;;13.29;100.00
63035;BME280;59750;53.356;-1.458;2022-07-23T03:01:01;100741.00;;;13.28;100.00
63035;BME280;59750;53.356;-1.458;2022-07-23T03:03:27;100733.31;;;13.25;100.00
63035;BME280;59750;53.356;-1.458;2022-07-23T03:05:53;100744.13;;;13.22;100.00
63035;BME280;59750;53.356;-1.458;2022-07-23T03:08:20;100733.81;;;13.19;100.00
63035;BME280;59750;53.356;-1.458;2022-07-23T03:10:46;100732.34;;;13.15;100.00
63035;BME280;59750;53.356;-1.458;2022-07-23T03:13:12;100724.75;;;13.10;100.00
63035;BME280;59750;53.356;-1.458;2022-07-23T03:15:37;100732.09;;;13.07;100.00
63035;BME280;59750;53.356;-1.458;2022-07-23T03:18:04;100737.03;;;13.00;100.00
63035;BME280;59750;53.356;-1.458;2022-07-23T03:20:30;100750.47;;;12.97;100.00
63035;BME280;59750;53.356;-1.458;2022-07-23T03:22:55;100745.66;;;12.91;100.00
63035;BME280;59750;53.356;-1.458;2022-07-23T03:25:21;100748.63;;;12.86;100.00
63035;BME280;59750;53.356;-1.458;2022-07-23T03:27:47;100746.47;;;12.80;100.00
63035;BME280;59750;53.356;-1.458;2022-07-23T03:30:13;100752.94;;;12.76;100.00
63035;BME280;59750;53.356;-1.458;2022-07-23T03:32:39;100755.94;;;12.72;100.00
63035;BME280;59750;53.356;-1.458;2022-07-23T03:35:05;100759.66;;;12.69;100.00
63035;BME280;59750;53.356;-1.458;2022-07-23T03:37:32;100745.97;;;12.64;100.00
63035;BME280;59750;53.356;-1.458;2022-07-23T03:39:57;100742.81;;;12.59;100.00
63035;BME280;59750;53.356;-1.458;2022-07-23T03:42:24;100742.09;;;12.57;100.00
63035;BME280;59750;53.356;-1.458;2022-07-23T03:44:50;100734.53;;;12.52;100.00
63035;BME280;59750;53.356;-1.458;2022-07-23T03:47:16;100733.94;;;12.49;100.00
63035;BME280;59750;53.356;-1.458;2022-07-23T03:49:43;100737.78;;;12.45;100.00
63035;BME280;59750;53.356;-1.458;2022-07-23T03:52:09;100735.50;;;12.40;100.00
63035;BME280;59750;53.356;-1.458;2022-07-23T03:54:34;100734.88;;;12.36;99.76
63035;BME280;59750;53.356;-1.458;2022-07-23T03:57:00;100734.34;;;12.31;99.91
63035;BME280;59750;53.356;-1.458;2022-07-23T03:59:26;100733.63;;;12.29;99.70
63035;BME280;59750;53.356;-1.458;2022-07-23T04:01:52;100734.72;;;12.27;99.71
63035;BME280;59750;53.356;-1.458;2022-07-23T04:04:21;100728.00;;;12.23;99.24
63035;BME280;59750;53.356;-1.458;2022-07-23T04:06:47;100730.03;;;12.19;99.44
63035;BME280;59750;53.356;-1.458;2022-07-23T04:09:14;100720.66;;;12.15;99.33
63035;BME280;59750;53.356;-1.458;2022-07-23T04:11:40;100720.78;;;12.14;99.69
63035;BME280;59750;53.356;-1.458;2022-07-23T04:14:06;100718.25;;;12.12;99.55
63035;BME280;59750;53.356;-1.458;2022-07-23T04:16:32;100717.53;;;12.10;99.65
63035;BME280;59750;53.356;-1.458;2022-07-23T04:19:00;100716.06;;;12.06;99.55
63035;BME280;59750;53.356;-1.458;2022-07-23T04:21:26;100723.22;;;12.04;99.47
63035;BME280;59750;53.356;-1.458;2022-07-23T04:23:52;100719.03;;;12.01;99.39
63035;BME280;59750;53.356;-1.458;2022-07-23T04:26:19;100721.78;;;12.00;99.10
63035;BME280;59750;53.356;-1.458;2022-07-23T04:28:44;100728.25;;;11.96;98.86
63035;BME280;59750;53.356;-1.458;2022-07-23T04:31:11;100723.19;;;11.93;98.78
63035;BME280;59750;53.356;-1.458;2022-07-23T04:33:37;100739.13;;;11.91;98.74
63035;BME280;59750;53.356;-1.458;2022-07-23T04:36:03;100733.00;;;11.91;98.54
63035;BME280;59750;53.356;-1.458;2022-07-23T04:38:29;100714.69;;;11.89;98.86
63035;BME280;59750;53.356;-1.458;2022-07-23T04:40:55;100724.50;;;11.87;98.83
63035;BME280;59750;53.356;-1.458;2022-07-23T04:43:21;100709.53;;;11.88;98.85
63035;BME280;59750;53.356;-1.458;2022-07-23T04:45:47;100714.78;;;11.88;98.87
63035;BME280;59750;53.356;-1.458;2022-07-23T04:48:13;100714.78;;;11.88;99.11
63035;BME280;59750;53.356;-1.458;2022-07-23T04:50:39;100727.84;;;11.89;99.24
63035;BME280;59750;53.356;-1.458;2022-07-23T04:53:04;100717.31;;;11.89;99.33
63035;BME280;59750;53.356;-1.458;2022-07-23T04:55:30;100722.81;;;11.86;100.00
63035;BME280;59750;53.356;-1.458;2022-07-23T04:57:56;100729.66;;;11.89;100.00
63035;BME280;59750;53.356;-1.458;2022-07-23T05:00:22;100731.09;;;11.93;100.00
63035;BME280;59750;53.356;-1.458;2022-07-23T05:02:48;100729.19;;;11.95;100.00
63035;BME280;59750;53.356;-1.458;2022-07-23T05:05:14;100724.75;;;11.95;100.00
63035;BME280;59750;53.356;-1.458;2022-07-23T05:07:40;100727.28;;;11.97;100.00
63035;BME280;59750;53.356;-1.458;2022-07-23T05:10:06;100727.28;;;11.97;100.00
63035;BME280;59750;53.356;-1.458;2022-07-23T05:12:32;100724.53;;;11.98;100.00
63035;BME280;59750;53.356;-1.458;2022-07-23T05:14:58;100731.50;;;11.99;100.00
63035;BME280;59750;53.356;-1.458;2022-07-23T05:17:24;100714.72;;;12.00;100.00
63035;BME280;59750;53.356;-1.458;2022-07-23T05:19:50;100713.75;;;12.01;100.00
63035;BME280;59750;53.356;-1.458;2022-07-23T05:22:16;100715.44;;;12.02;100.00
63035;BME280;59750;53.356;-1.458;2022-07-23T05:24:42;100714.38;;;12.05;100.00
63035;BME280;59750;53.356;-1.458;2022-07-23T05:27:08;100716.91;;;12.06;100.00
63035;BME280;59750;53.356;-1.458;2022-07-23T05:29:34;100726.41;;;12.09;100.00
63035;BME280;59750;53.356;-1.458;2022-07-23T05:32:00;100726.16;;;12.12;100.00
63035;BME280;59750;53.356;-1.458;2022-07-23T05:34:26;100718.03;;;12.15;100.00
63035;BME280;59750;53.356;-1.458;2022-07-23T05:36:52;100724.03;;;12.17;100.00
63035;BME280;59750;53.356;-1.458;2022-07-23T05:39:17;100725.69;;;12.18;100.00
63035;BME280;59750;53.356;-1.458;2022-07-23T05:41:43;100720.44;;;12.18;100.00
63035;BME280;59750;53.356;-1.458;2022-07-23T05:44:11;100729.91;;;12.21;100.00
63035;BME280;59750;53.356;-1.458;2022-07-23T05:46:37;100722.94;;;12.20;100.00
63035;BME280;59750;53.356;-1.458;2022-07-23T05:49:03;100725.47;;;12.21;100.00
63035;BME280;59750;53.356;-1.458;2022-07-23T05:51:32;100723.78;;;12.20;100.00
63035;BME280;59750;53.356;-1.458;2022-07-23T05:53:58;100724.63;;;12.21;100.00
63035;BME280;59750;53.356;-1.458;2022-07-23T05:56:24;100729.91;;;12.21;100.00
63035;BME280;59750;53.356;-1.458;2022-07-23T05:58:50;100731.59;;;12.22;100.00
63035;BME280;59750;53.356;-1.458;2022-07-23T06:01:16;100727.16;;;12.22;100.00
63035;BME280;59750;53.356;-1.458;2022-07-23T06:03:42;100725.22;;;12.24;100.00
63035;BME280;59750;53.356;-1.458;2022-07-23T06:06:08;100716.25;;;12.27;100.00
63035;BME280;59750;53.356;-1.458;2022-07-23T06:08:33;100719.72;;;12.27;100.00
63035;BME280;59750;53.356;-1.458;2022-07-23T06:10:59;100719.50;;;12.30;100.00
63035;BME280;59750;53.356;-1.458;2022-07-23T06:13:25;100709.66;;;12.32;100.00
63035;BME280;59750;53.356;-1.458;2022-07-23T06:15:51;100705.13;;;12.34;100.00
63035;BME280;59750;53.356;-1.458;2022-07-23T06:18:17;100706.59;;;12.38;100.00
63035;BME280;59750;53.356;-1.458;2022-07-23T06:20:43;100710.66;;;12.43;100.00
63035;BME280;59750;53.356;-1.458;2022-07-23T06:23:09;100711.16;;;12.48;100.00
63035;BME280;59750;53.356;-1.458;2022-07-23T06:25:35;100715.13;;;12.53;100.00
63035;BME280;59750;53.356;-1.458;2022-07-23T06:28:01;100712.13;;;12.58;100.00
63035;BME280;59750;53.356;-1.458;2022-07-23T06:30:27;100705.44;;;12.65;100.00
63035;BME280;59750;53.356;-1.458;2022-07-23T06:32:53;100701.47;;;12.71;100.00
63035;BME280;59750;53.356;-1.458;2022-07-23T06:35:19;100698.47;;;12.75;100.00
63035;BME280;59750;53.356;-1.458;2022-07-23T06:37:45;100709.50;;;12.80;100.00
63035;BME280;59750;53.356;-1.458;2022-07-23T06:40:12;100705.56;;;12.86;100.00
63035;BME280;59750;53.356;-1.458;2022-07-23T06:42:39;100704.25;;;12.91;100.00
63035;BME280;59750;53.356;-1.458;2022-07-23T06:45:06;100712.53;;;12.98;100.00
63035;BME280;59750;53.356;-1.458;2022-07-23T06:47:33;100716.97;;;13.09;100.00
63035;BME280;59750;53.356;-1.458;2022-07-23T06:49:59;100715.81;;;13.24;100.00
63035;BME280;59750;53.356;-1.458;2022-07-23T06:52:25;100719.63;;;13.42;100.00
63035;BME280;59750;53.356;-1.458;2022-07-23T06:54:52;100708.16;;;13.64;100.00
63035;BME280;59750;53.356;-1.458;2022-07-23T06:57:18;100710.84;;;13.85;100.00
63035;BME280;59750;53.356;-1.458;2022-07-23T06:59:44;100708.38;;;14.04;100.00
63035;BME280;59750;53.356;-1.458;2022-07-23T07:02:10;100706.69;;;14.24;100.00
63035;BME280;59750;53.356;-1.458;2022-07-23T07:04:37;100710.22;;;14.45;100.00
63035;BME280;59750;53.356;-1.458;2022-07-23T07:07:03;100711.47;;;14.62;100.00
63035;BME280;59750;53.356;-1.458;2022-07-23T07:09:30;100706.78;;;14.75;100.00
63035;BME280;59750;53.356;-1.458;2022-07-23T07:11:56;100712.72;;;14.89;100.00
63035;BME280;59750;53.356;-1.458;2022-07-23T07:14:22;100715.91;;;15.13;100.00
63035;BME280;59750;53.356;-1.458;2022-07-23T07:16:49;100711.75;;;15.30;100.00
63035;BME280;59750;53.356;-1.458;2022-07-23T07:19:15;100711.81;;;15.49;100.00
63035;BME280;59750;53.356;-1.458;2022-07-23T07:21:40;100708.13;;;15.71;100.00
63035;BME280;59750;53.356;-1.458;2022-07-23T07:24:08;100701.56;;;15.85;100.00
63035;BME280;59750;53.356;-1.458;2022-07-23T07:26:34;100692.38;;;15.89;100.00
63035;BME280;59750;53.356;-1.458;2022-07-23T07:29:00;100703.53;;;15.92;100.00
63035;BME280;59750;53.356;-1.458;2022-07-23T07:31:26;100699.63;;;16.06;100.00
63035;BME280;59750;53.356;-1.458;2022-07-23T07:33:52;100708.00;;;16.21;100.00
63035;BME280;59750;53.356;-1.458;2022-07-23T07:36:19;100706.84;;;16.33;100.00
63035;BME280;59750;53.356;-1.458;2022-07-23T07:38:45;100712.97;;;16.43;100.00
63035;BME280;59750;53.356;-1.458;2022-07-23T07:41:11;100709.34;;;16.54;100.00
63035;BME280;59750;53.356;-1.458;2022-07-23T07:43:37;100704.59;;;16.57;100.00
63035;BME280;59750;53.356;-1.458;2022-07-23T07:46:04;100696.72;;;16.65;96.23
63035;BME280;59750;53.356;-1.458;2022-07-23T07:48:30;100702.91;;;16.76;96.93
63035;BME280;59750;53.356;-1.458;2022-07-23T07:50:59;100700.19;;;16.85;96.93
63035;BME280;59750;53.356;-1.458;2022-07-23T07:53:26;100696.69;;;16.85;95.11
63035;BME280;59750;53.356;-1.458;2022-07-23T07:55:53;100698.09;;;16.89;95.43
63035;BME280;59750;53.356;-1.458;2022-07-23T07:58:19;100696.13;;;16.91;97.04
63035;BME280;59750;53.356;-1.458;2022-07-23T08:00:45;100707.03;;;16.88;95.07
63035;BME280;59750;53.356;-1.458;2022-07-23T08:03:11;100688.19;;;16.81;91.28
63035;BME280;59750;53.356;-1.458;2022-07-23T08:05:37;100686.91;;;16.85;91.98
63035;BME280;59750;53.356;-1.458;2022-07-23T08:08:04;100688.84;;;16.93;93.00
63035;BME280;59750;53.356;-1.458;2022-07-23T08:10:30;100695.72;;;16.86;88.57
63035;BME280;59750;53.356;-1.458;2022-07-23T08:12:59;100694.44;;;16.99;91.49
63035;BME280;59750;53.356;-1.458;2022-07-23T08:15:27;100696.28;;;17.17;91.86
63035;BME280;59750;53.356;-1.458;2022-07-23T08:17:55;100698.59;;;17.02;89.23
63035;BME280;59750;53.356;-1.458;2022-07-23T08:20:22;100703.63;;;17.05;87.93
63035;BME280;59750;53.356;-1.458;2022-07-23T08:22:54;100698.78;;;17.18;91.09
63035;BME280;59750;53.356;-1.458;2022-07-23T08:27:52;100690.63;;;17.29;90.90
63035;BME280;59750;53.356;-1.458;2022-07-23T08:30:20;100692.41;;;17.11;89.64
63035;BME280;59750;53.356;-1.458;2022-07-23T08:32:53;100692.50;;;17.19;89.03
63035;BME280;59750;53.356;-1.458;2022-07-23T08:37:59;100694.56;;;17.25;89.74
63035;BME280;59750;53.356;-1.458;2022-07-23T08:40:27;100695.13;;;17.47;89.82
63035;BME280;59750;53.356;-1.458;2022-07-23T08:42:54;100688.75;;;17.67;91.39
63035;BME280;59750;53.356;-1.458;2022-07-23T08:45:23;100700.34;;;17.66;87.48
63035;BME280;59750;53.356;-1.458;2022-07-23T08:47:52;100685.56;;;17.81;89.80
63035;BME280;59750;53.356;-1.458;2022-07-23T08:50:22;100692.56;;;17.82;88.04
63035;BME280;59750;53.356;-1.458;2022-07-23T08:52:50;100692.09;;;17.69;84.02
63035;BME280;59750;53.356;-1.458;2022-07-23T08:55:18;100679.00;;;17.94;85.76
63035;BME280;59750;53.356;-1.458;2022-07-23T08:57:48;100670.94;;;18.21;88.59
63035;BME280;59750;53.356;-1.458;2022-07-23T09:00:15;100679.50;;;18.33;84.73
63035;BME280;59750;53.356;-1.458;2022-07-23T09:02:43;100687.31;;;18.34;82.73
63035;BME280;59750;53.356;-1.458;2022-07-23T09:05:12;100688.41;;;18.41;82.77
63035;BME280;59750;53.356;-1.458;2022-07-23T09:10:45;100687.59;;;18.49;83.25
63035;BME280;59750;53.356;-1.458;2022-07-23T09:16:06;100690.63;;;18.54;81.16
63035;BME280;59750;53.356;-1.458;2022-07-23T09:18:53;100684.78;;;18.50;82.75
63035;BME280;59750;53.356;-1.458;2022-07-23T09:21:25;100677.38;;;18.36;81.53
63035;BME280;59750;53.356;-1.458;2022-07-23T09:24:00;100680.31;;;18.33;82.01
63035;BME280;59750;53.356;-1.458;2022-07-23T09:26:42;100688.56;;;18.22;81.78
63035;BME280;59750;53.356;-1.458;2022-07-23T09:29:28;100693.53;;;18.17;83.48
63035;BME280;59750;53.356;-1.458;2022-07-23T09:32:00;100678.19;;;18.11;86.88
63035;BME280;59750;53.356;-1.458;2022-07-23T09:34:33;100674.44;;;18.21;85.53
63035;BME280;59750;53.356;-1.458;2022-07-23T09:37:14;100679.81;;;18.56;84.12
63035;BME280;59750;53.356;-1.458;2022-07-23T09:39:42;100677.00;;;18.57;80.50
63035;BME280;59750;53.356;-1.458;2022-07-23T09:42:27;100677.31;;;18.80;77.44
63035;BME280;59750;53.356;-1.458;2022-07-23T09:44:56;100679.13;;;19.13;80.13
63035;BME280;59750;53.356;-1.458;2022-07-23T09:47:27;100683.81;;;19.11;77.67
63035;BME280;59750;53.356;-1.458;2022-07-23T09:50:12;100682.13;;;19.10;80.55
63035;BME280;59750;53.356;-1.458;2022-07-23T09:55:10;100689.97;;;18.78;78.85
63035;BME280;59750;53.356;-1.458;2022-07-23T09:57:36;100687.91;;;18.64;78.25
63035;BME280;59750;53.356;-1.458;2022-07-23T10:00:07;100686.44;;;18.51;78.82
63035;BME280;59750;53.356;-1.458;2022-07-23T10:02:36;100689.31;;;18.58;79.06
63035;BME280;59750;53.356;-1.458;2022-07-23T10:05:04;100684.00;;;18.58;78.31
63035;BME280;59750;53.356;-1.458;2022-07-23T10:07:38;100684.63;;;18.52;78.18
63035;BME280;59750;53.356;-1.458;2022-07-23T10:10:06;100680.00;;;18.80;77.05
63035;BME280;59750;53.356;-1.458;2022-07-23T10:12:34;100682.50;;;19.58;79.05
63035;BME280;59750;53.356;-1.458;2022-07-23T10:15:05;100666.81;;;20.52;73.88
63035;BME280;59750;53.356;-1.458;2022-07-23T10:17:33;100666.53;;;21.42;70.68
63035;BME280;59750;53.356;-1.458;2022-07-23T10:20:00;100670.88;;;22.19;68.82
63035;BME280;59750;53.356;-1.458;2022-07-23T10:22:30;100664.53;;;22.12;64.17
63035;BME280;59750;53.356;-1.458;2022-07-23T10:27:58;100673.00;;;21.16;66.33
63035;BME280;59750;53.356;-1.458;2022-07-23T10:30:41;100674.97;;;20.75;64.82
63035;BME280;59750;53.356;-1.458;2022-07-23T10:39:24;100678.03;;;20.07;70.91
63035;BME280;59750;53.356;-1.458;2022-07-23T10:42:17;100675.53;;;20.14;72.85
63035;BME280;59750;53.356;-1.458;2022-07-23T10:42:21;100675.53;;;20.14;72.85
63035;BME280;59750;53.356;-1.458;2022-07-23T10:44:56;100673.19;;;20.43;72.64
63035;BME280;59750;53.356;-1.458;2022-07-23T10:47:28;100675.47;;;20.71;70.74
63035;BME280;59750;53.356;-1.458;2022-07-23T10:50:19;100663.13;;;21.09;71.66
63035;BME280;59750;53.356;-1.458;2022-07-23T10:58:06;100663.56;;;20.89;68.30
63035;BME280;59750;53.356;-1.458;2022-07-23T11:00:34;100654.59;;;20.82;68.55
63035;BME280;59750;53.356;-1.458;2022-07-23T11:03:04;100663.97;;;20.70;68.25
63035;BME280;59750;53.356;-1.458;2022-07-23T11:05:41;100664.16;;;20.60;68.45
63035;BME280;59750;53.356;-1.458;2022-07-23T11:10:41;100655.81;;;20.23;64.08
63035;BME280;59750;53.356;-1.458;2022-07-23T11:13:31;100652.19;;;20.08;66.26
63035;BME280;59750;53.356;-1.458;2022-07-23T11:16:20;100643.97;;;19.93;67.06
63035;BME280;59750;53.356;-1.458;2022-07-23T11:26:54;100662.22;;;19.39;69.19
63035;BME280;59750;53.356;-1.458;2022-07-23T11:31:59;100657.63;;;19.07;69.75
63035;BME280;59750;53.356;-1.458;2022-07-23T11:34:35;100653.44;;;19.04;72.01
63035;BME280;59750;53.356;-1.458;2022-07-23T11:37:06;100659.81;;;19.11;75.77
63035;BME280;59750;53.356;-1.458;2022-07-23T11:39:35;100657.31;;;19.10;70.39
63035;BME280;59750;53.356;-1.458;2022-07-23T11:42:05;100666.13;;;19.10;72.82
63035;BME280;59750;53.356;-1.458;2022-07-23T11:44:36;100656.44;;;19.01;70.98
63035;BME280;59750;53.356;-1.458;2022-07-23T11:47:07;100659.25;;;18.92;71.33
63035;BME280;59750;53.356;-1.458;2022-07-23T11:49:35;100660.44;;;18.97;73.20
63035;BME280;59750;53.356;-1.458;2022-07-23T11:54:35;100655.69;;;18.83;72.89
63035;BME280;59750;53.356;-1.458;2022-07-23T11:57:03;100658.84;;;18.78;70.84
63035;BME280;59750;53.356;-1.458;2022-07-23T11:59:33;100665.41;;;18.92;73.58
63035;BME280;59750;53.356;-1.458;2022-07-23T12:02:04;100662.78;;;19.00;73.63
63035;BME280;59750;53.356;-1.458;2022-07-23T12:07:30;100665.28;;;19.02;75.66
63035;BME280;59750;53.356;-1.458;2022-07-23T12:09:59;100654.28;;;19.05;76.20
63035;BME280;59750;53.356;-1.458;2022-07-23T12:12:27;100661.28;;;19.06;75.59
63035;BME280;59750;53.356;-1.458;2022-07-23T12:14:58;100663.47;;;19.10;76.32
63035;BME280;59750;53.356;-1.458;2022-07-23T12:17:32;100664.63;;;19.08;75.14
63035;BME280;59750;53.356;-1.458;2022-07-23T12:20:00;100656.75;;;18.90;72.37
63035;BME280;59750;53.356;-1.458;2022-07-23T12:22:36;100663.69;;;18.83;73.05
63035;BME280;59750;53.356;-1.458;2022-07-23T12:27:32;100665.28;;;18.68;74.84
63035;BME280;59750;53.356;-1.458;2022-07-23T12:29:59;100672.97;;;18.71;72.32
63035;BME280;59750;53.356;-1.458;2022-07-23T12:32:27;100663.00;;;18.81;73.86
63035;BME280;59750;53.356;-1.458;2022-07-23T12:35:13;100669.66;;;18.77;74.04
63035;BME280;59750;53.356;-1.458;2022-07-23T12:37:43;100667.16;;;18.75;72.31
63035;BME280;59750;53.356;-1.458;2022-07-23T12:40:29;100676.66;;;18.78;75.79
63035;BME280;59750;53.356;-1.458;2022-07-23T12:43:01;100671.59;;;18.67;73.58
63035;BME280;59750;53.356;-1.458;2022-07-23T12:45:43;100663.66;;;18.57;72.60
63035;BME280;59750;53.356;-1.458;2022-07-23T12:48:31;100650.47;;;18.47;73.85
63035;BME280;59750;53.356;-1.458;2022-07-23T12:50:59;100649.78;;;18.45;73.49
63035;BME280;59750;53.356;-1.458;2022-07-23T12:53:29;100638.97;;;18.47;72.76
63035;BME280;59750;53.356;-1.458;2022-07-23T12:56:04;100637.50;;;18.52;74.79
63035;BME280;59750;53.356;-1.458;2022-07-23T12:58:55;100644.19;;;18.57;73.30
63035;BME280;59750;53.356;-1.458;2022-07-23T13:01:25;100634.22;;;18.59;73.48
63035;BME280;59750;53.356;-1.458;2022-07-23T13:06:48;100630.38;;;18.87;73.26
63035;BME280;59750;53.356;-1.458;2022-07-23T13:09:17;100622.78;;;19.00;70.94
63035;BME280;59750;53.356;-1.458;2022-07-23T13:11:47;100620.63;;;19.04;69.65
63035;BME280;59750;53.356;-1.458;2022-07-23T13:14:15;100621.44;;;18.96;70.30
63035;BME280;59750;53.356;-1.458;2022-07-23T13:16:43;100606.63;;;19.02;70.47
63035;BME280;59750;53.356;-1.458;2022-07-23T13:19:10;100615.13;;;19.05;69.54
63035;BME280;59750;53.356;-1.458;2022-07-23T13:21:37;100620.78;;;18.94;70.16
63035;BME280;59750;53.356;-1.458;2022-07-23T13:24:05;100611.72;;;18.87;69.83
63035;BME280;59750;53.356;-1.458;2022-07-23T13:26:31;100615.94;;;18.98;72.35
63035;BME280;59750;53.356;-1.458;2022-07-23T13:28:58;100613.47;;;19.04;71.79